Time;durP1;ratioP1;P1;durP2;ratioP2;P2;SDS_P1;SDS_P2;PMS_P1;PMS_P2;Temp;Humidity;BMP_temperature;BMP_pressure;BME280_temperature;BME280_humidity;BME280_pressure;Samples;Min_cycle;Max_cycle;Signal;HPM_P1;HPM_P2
2022/09/20 00:01:06;;;;;;;2.05;1.27;;;11.60;99.90;;;;;;4957613;28;20037;-70
2022/09/20 00:03:33;;;;;;;2.70;1.20;;;11.60;99.90;;;;;;4974998;28;20062;-70
2022/09/20 00:06:03;;;;;;;2.25;1.23;;;11.60;99.90;;;;;;4975001;28;20035;-72
2022/09/20 00:08:29;;;;;;;1.70;1.30;;;11.60;99.90;;;;;;4975343;28;20043;-69
2022/09/20 00:11:01;;;;;;;2.25;1.35;;;11.60;99.90;;;;;;4975341;28;20428;-70
2022/09/20 00:13:27;;;;;;;4.70;1.35;;;11.50;99.90;;;;;;4975189;28;20035;-70
2022/09/20 00:15:53;;;;;;;1.77;1.27;;;11.50;99.90;;;;;;4980532;28;20035;-70
2022/09/20 00:18:18;;;;;;;2.95;1.50;;;11.50;99.90;;;;;;4994098;28;20364;-70
2022/09/20 00:20:46;;;;;;;1.83;1.23;;;11.50;99.90;;;;;;4994755;28;20050;-70
2022/09/20 00:23:11;;;;;;;1.98;1.20;;;11.50;99.90;;;;;;4994054;28;20110;-70
2022/09/20 00:25:37;;;;;;;4.05;1.25;;;11.40;99.90;;;;;;4994443;28;20109;-70
2022/09/20 00:28:03;;;;;;;1.20;1.10;;;11.40;99.90;;;;;;4994015;28;20160;-70
2022/09/20 00:30:30;;;;;;;1.40;1.05;;;11.40;99.90;;;;;;4994489;28;20026;-69
2022/09/20 00:32:55;;;;;;;2.75;1.30;;;11.40;99.90;;;;;;4994353;28;20026;-70
2022/09/20 00:35:21;;;;;;;3.22;1.70;;;11.40;99.90;;;;;;4993900;28;20129;-70
2022/09/20 00:37:47;;;;;;;2.67;1.10;;;11.40;99.90;;;;;;4994129;28;20066;-70
2022/09/20 00:40:16;;;;;;;1.65;1.20;;;11.40;99.90;;;;;;4994003;28;20506;-70
2022/09/20 00:42:41;;;;;;;3.40;1.30;;;11.40;99.90;;;;;;4986749;28;20047;-70
2022/09/20 00:45:27;;;;;;;1.55;1.30;;;11.30;99.90;;;;;;4974486;28;20038;-70
2022/09/20 00:48:09;;;;;;;1.13;0.98;;;11.30;99.90;;;;;;4974713;28;20086;-71
2022/09/20 00:50:42;;;;;;;3.95;1.20;;;11.30;99.90;;;;;;4974647;28;20034;-71
2022/09/20 00:53:10;;;;;;;2.58;1.50;;;11.30;99.90;;;;;;4973718;28;20037;-71
2022/09/20 00:55:44;;;;;;;2.58;1.00;;;11.30;99.90;;;;;;4974336;28;20413;-70
2022/09/20 00:58:11;;;;;;;2.22;1.15;;;11.30;99.90;;;;;;4974311;28;20037;-71
2022/09/20 01:00:37;;;;;;;3.67;1.20;;;11.20;99.90;;;;;;4974155;28;20033;-70
2022/09/20 01:03:07;;;;;;;5.13;1.40;;;11.30;99.90;;;;;;4974185;28;20078;-73
2022/09/20 01:05:34;;;;;;;4.45;1.30;;;11.20;99.90;;;;;;4974793;28;20027;-69
2022/09/20 01:08:00;;;;;;;2.70;1.40;;;11.20;99.90;;;;;;4969993;28;20090;-70
2022/09/20 01:10:26;;;;;;;2.38;1.02;;;11.20;99.90;;;;;;4973680;28;20139;-70
2022/09/20 01:12:53;;;;;;;3.58;1.30;;;11.20;99.90;;;;;;4974285;28;20034;-70
2022/09/20 01:15:20;;;;;;;1.85;1.20;;;11.20;99.90;;;;;;4973758;28;20419;-71
2022/09/20 01:17:51;;;;;;;2.88;1.00;;;11.20;99.90;;;;;;4974332;28;20038;-71
2022/09/20 01:20:24;;;;;;;3.30;1.20;;;11.20;99.90;;;;;;4973982;28;20031;-71
2022/09/20 01:23:15;;;;;;;3.80;1.50;;;11.20;99.90;;;;;;4974379;28;20448;-71
2022/09/20 01:25:52;;;;;;;3.03;1.60;;;11.10;99.90;;;;;;4974186;28;20034;-71
2022/09/20 01:28:18;;;;;;;7.05;1.20;;;11.20;99.90;;;;;;4973344;28;20037;-71
2022/09/20 01:30:51;;;;;;;2.25;1.20;;;11.10;99.90;;;;;;4974047;28;20391;-71
2022/09/20 01:33:27;;;;;;;2.78;1.40;;;11.10;99.90;;;;;;4973508;28;20031;-71
2022/09/20 01:35:54;;;;;;;5.10;1.35;;;11.10;99.90;;;;;;4973961;28;20121;-70
2022/09/20 01:38:48;;;;;;;2.05;1.10;;;11.10;99.90;;;;;;4973362;28;20041;-70
2022/09/20 01:41:54;;;;;;;2.78;1.23;;;11.20;99.90;;;;;;4973699;28;20163;-70
2022/09/20 01:44:55;;;;;;;3.15;1.40;;;11.10;99.90;;;;;;4959162;28;20051;-72
2022/09/20 01:47:45;;;;;;;5.15;1.25;;;11.10;99.90;;;;;;4941855;28;20043;-72
2022/09/20 01:50:32;;;;;;;2.20;0.93;;;11.10;99.90;;;;;;4973242;28;20494;-72
2022/09/20 01:53:03;;;;;;;3.45;1.15;;;11.10;99.90;;;;;;4973801;28;20030;-70
2022/09/20 01:55:47;;;;;;;1.05;0.95;;;11.10;99.90;;;;;;4973475;28;20035;-70
2022/09/20 01:58:50;;;;;;;2.17;1.25;;;11.10;99.90;;;;;;4973589;28;20043;-71
2022/09/20 02:01:44;;;;;;;2.45;1.20;;;11.10;99.90;;;;;;4973237;28;20422;-70
2022/09/20 02:04:54;;;;;;;1.67;1.10;;;11.10;99.90;;;;;;4973782;28;20038;-73
2022/09/20 02:07:41;;;;;;;1.52;1.02;;;11.10;99.90;;;;;;4957727;28;20047;-70
2022/09/20 02:10:49;;;;;;;1.40;0.98;;;11.10;99.90;;;;;;4973833;28;20027;-69
2022/09/20 02:13:32;;;;;;;2.22;1.23;;;11.10;99.90;;;;;;4913413;29;20464;-71
2022/09/20 02:16:25;;;;;;;3.53;1.27;;;11.20;99.90;;;;;;4968061;28;20043;-71
2022/09/20 02:19:09;;;;;;;3.17;1.00;;;11.20;99.90;;;;;;4974674;28;20046;-71
2022/09/20 02:22:17;;;;;;;2.88;1.20;;;11.20;99.90;;;;;;4976894;28;20031;-70
2022/09/20 02:25:07;;;;;;;1.20;1.10;;;11.10;99.90;;;;;;4977339;28;20030;-70
2022/09/20 02:27:42;;;;;;;1.73;1.25;;;11.20;99.90;;;;;;4993711;28;20034;-70
2022/09/20 02:30:26;;;;;;;2.42;1.45;;;11.10;99.90;;;;;;4996642;28;20118;-71
2022/09/20 02:33:13;;;;;;;2.25;0.93;;;11.10;99.90;;;;;;4996988;28;20378;-70
2022/09/20 02:36:00;;;;;;;3.30;1.20;;;11.10;99.90;;;;;;4996690;28;20027;-71
2022/09/20 02:38:41;;;;;;;1.65;1.17;;;11.10;99.90;;;;;;4995871;28;20042;-71
2022/09/20 02:41:25;;;;;;;;;;;11.10;99.90;;;;;;4996972;28;20094;-71
2022/09/20 02:44:19;;;;;;;1.65;1.15;;;11.10;99.90;;;;;;4996620;28;19924;-70
2022/09/20 02:47:19;;;;;;;3.67;1.27;;;11.10;99.90;;;;;;4996564;28;20033;-70
2022/09/20 02:50:08;;;;;;;2.28;1.17;;;11.10;99.90;;;;;;4996609;28;20030;-70
2022/09/20 02:53:01;;;;;;;1.63;1.10;;;11.10;99.90;;;;;;4995917;28;20030;-70
2022/09/20 02:56:15;;;;;;;1.75;1.00;;;11.10;99.90;;;;;;4995671;28;20386;-69
2022/09/20 02:58:49;;;;;;;2.53;1.02;;;11.10;99.90;;;;;;4982501;28;20113;-69
2022/09/20 03:01:23;;;;;;;2.78;1.02;;;11.00;99.90;;;;;;4995762;28;20023;-72
2022/09/20 03:04:27;;;;;;;1.98;1.13;;;11.10;99.90;;;;;;4995945;28;20368;-70
2022/09/20 03:07:28;;;;;;;4.20;1.58;;;11.00;99.90;;;;;;4995847;28;20034;-71
2022/09/20 03:10:08;;;;;;;;;;;11.10;99.90;;;;;;4958345;28;20114;-71
2022/09/20 03:12:54;;;;;;;1.27;0.95;;;11.00;99.90;;;;;;4964205;28;19906;-71
2022/09/20 03:15:35;;;;;;;1.20;1.10;;;11.00;99.90;;;;;;4958221;28;20035;-71
2022/09/20 03:18:12;;;;;;;1.95;0.98;;;11.10;99.90;;;;;;4967187;28;20027;-70
2022/09/20 03:20:53;;;;;;;2.55;1.00;;;11.10;99.90;;;;;;4965310;28;20031;-70
2022/09/20 03:23:33;;;;;;;2.08;1.30;;;11.00;99.90;;;;;;4968219;28;20027;-73
2022/09/20 03:26:11;;;;;;;3.15;1.30;;;11.10;99.90;;;;;;4968676;28;20380;-70
2022/09/20 03:29:21;;;;;;;1.85;1.10;;;11.10;99.90;;;;;;4975740;28;20035;-71
2022/09/20 03:32:04;;;;;;;2.45;1.27;;;11.10;99.90;;;;;;4928892;28;20404;-71
2022/09/20 03:34:45;;;;;;;1.67;1.20;;;11.00;99.90;;;;;;4966836;28;20054;-70
2022/09/20 03:37:38;;;;;;;1.20;1.10;;;11.10;99.90;;;;;;4964846;28;20510;-70
2022/09/20 03:40:25;;;;;;;2.78;1.48;;;11.00;99.90;;;;;;4967002;28;20528;-70
2022/09/20 03:42:53;;;;;;;7.07;1.27;;;11.00;99.90;;;;;;4977490;28;20046;-70
2022/09/20 03:45:40;;;;;;;3.33;1.63;;;11.00;99.90;;;;;;4993102;28;20038;-70
2022/09/20 03:48:21;;;;;;;1.90;1.40;;;11.00;99.90;;;;;;4990458;28;20026;-70
2022/09/20 03:51:05;;;;;;;2.42;1.42;;;11.00;99.90;;;;;;4990098;28;20034;-69
2022/09/20 03:53:52;;;;;;;3.35;1.35;;;11.00;99.90;;;;;;4990884;28;20504;-70
2022/09/20 03:56:44;;;;;;;2.05;1.70;;;11.00;99.90;;;;;;4994349;28;20072;-70
2022/09/20 03:59:33;;;;;;;2.53;1.58;;;11.00;99.90;;;;;;4992047;28;20035;-71
2022/09/20 04:02:30;;;;;;;3.08;1.83;;;11.00;99.90;;;;;;4988471;28;20134;-70
2022/09/20 04:05:09;;;;;;;1.52;1.40;;;11.00;99.90;;;;;;4989989;28;20101;-70
2022/09/20 04:07:42;;;;;;;2.60;1.92;;;11.00;99.90;;;;;;4987183;28;20038;-70
2022/09/20 04:10:50;;;;;;;2.25;1.38;;;11.00;99.90;;;;;;4992407;28;20062;-70
2022/09/20 04:13:51;;;;;;;2.78;1.50;;;11.00;99.90;;;;;;4974615;28;20479;-70
2022/09/20 04:16:46;;;;;;;3.33;2.10;;;11.00;99.90;;;;;;4992048;28;20030;-70
2022/09/20 04:19:45;;;;;;;2.67;1.45;;;11.00;99.90;;;;;;4994404;28;20052;-71
2022/09/20 04:22:11;;;;;;;3.35;1.50;;;11.00;99.90;;;;;;4994530;28;20475;-71
2022/09/20 04:24:49;;;;;;;3.60;1.73;;;11.00;99.90;;;;;;4993825;28;20062;-70
2022/09/20 04:27:26;;;;;;;3.25;1.90;;;11.00;99.90;;;;;;4994398;28;20030;-69
2022/09/20 04:30:05;;;;;;;2.67;1.40;;;10.90;99.90;;;;;;4994770;28;20038;-71
2022/09/20 04:32:36;;;;;;;2.63;1.73;;;11.00;99.90;;;;;;4992212;28;20030;-71
2022/09/20 04:37:46;;;;;;;5.18;1.75;;;10.90;99.90;;;;;;4993675;28;20314;-70
2022/09/20 04:40:24;;;;;;;2.88;1.88;;;10.90;99.90;;;;;;4994166;28;20133;-70
2022/09/20 04:43:08;;;;;;;2.38;1.80;;;10.90;99.90;;;;;;4993964;28;20054;-70
2022/09/20 04:45:59;;;;;;;4.10;2.00;;;10.90;99.90;;;;;;4993717;28;20042;-71
2022/09/20 04:48:39;;;;;;;2.83;1.90;;;10.90;99.90;;;;;;4956430;28;20057;-72
2022/09/20 04:51:23;;;;;;;3.13;1.55;;;10.90;99.90;;;;;;4994028;28;20535;-71
2022/09/20 04:54:22;;;;;;;3.40;1.58;;;11.00;99.90;;;;;;4994019;28;20026;-70
2022/09/20 04:56:59;;;;;;;2.60;1.50;;;11.00;99.90;;;;;;4991253;28;20101;-70
2022/09/20 04:59:28;;;;;;;2.28;1.42;;;11.00;99.90;;;;;;4993939;28;20097;-71
2022/09/20 05:02:40;;;;;;;3.72;1.40;;;11.00;99.90;;;;;;4993932;28;20057;-71
2022/09/20 05:05:35;;;;;;;2.17;1.30;;;11.00;99.90;;;;;;4989716;28;20101;-71
2022/09/20 05:08:32;;;;;;;6.72;1.63;;;11.00;99.90;;;;;;4952734;28;20042;-71
2022/09/20 05:10:58;;;;;;;2.50;1.30;;;11.00;99.90;;;;;;4974293;28;20039;-71
2022/09/20 05:13:37;;;;;;;3.80;1.55;;;11.00;99.90;;;;;;4974238;28;20380;-74
2022/09/20 05:16:17;;;;;;;1.75;1.20;;;11.00;99.90;;;;;;4974292;28;20035;-71
2022/09/20 05:19:15;;;;;;;2.13;1.20;;;11.00;99.90;;;;;;4973847;28;20360;-71
2022/09/20 05:22:01;;;;;;;1.77;1.00;;;11.00;99.90;;;;;;4973746;28;20038;-70
2022/09/20 05:24:37;;;;;;;2.67;1.30;;;11.00;99.90;;;;;;4981824;28;20022;-71
2022/09/20 05:27:33;;;;;;;2.45;1.13;;;11.00;99.90;;;;;;4993599;28;20040;-71
2022/09/20 05:30:08;;;;;;;1.25;1.15;;;11.10;99.90;;;;;;4993566;28;20026;-70
2022/09/20 05:32:54;;;;;;;2.80;1.20;;;11.10;99.90;;;;;;4993158;28;20030;-72
2022/09/20 05:35:42;;;;;;;6.28;1.20;;;11.10;99.90;;;;;;4993587;28;20101;-70
2022/09/20 05:38:22;;;;;;;1.48;1.10;;;11.10;99.90;;;;;;4993502;28;20035;-69
2022/09/20 05:41:03;;;;;;;4.95;1.40;;;11.10;99.90;;;;;;4992904;28;20031;-70
2022/09/20 05:43:33;;;;;;;1.77;1.10;;;11.10;99.90;;;;;;4992839;28;20105;-70
2022/09/20 05:46:04;;;;;;;4.00;1.38;;;11.20;99.90;;;;;;4992782;28;20030;-70
2022/09/20 05:48:57;;;;;;;2.65;1.40;;;11.10;99.90;;;;;;4992539;28;20444;-71
2022/09/20 05:51:51;;;;;;;2.38;1.58;;;11.20;99.90;;;;;;4992751;28;20398;-70
2022/09/20 05:54:40;;;;;;;1.77;1.50;;;11.20;99.90;;;;;;4996649;28;20550;-71
2022/09/20 05:57:33;;;;;;;4.97;2.33;;;11.20;99.90;;;;;;4999706;28;20022;-70
2022/09/20 06:00:19;;;;;;;3.00;1.60;;;11.20;99.90;;;;;;4999704;28;20033;-70
2022/09/20 06:03:14;;;;;;;3.28;1.48;;;11.20;99.90;;;;;;4999524;28;20026;-71
2022/09/20 06:05:41;;;;;;;2.33;1.85;;;11.20;99.90;;;;;;4995962;28;20475;-70
2022/09/20 06:08:32;;;;;;;2.20;1.70;;;11.20;99.90;;;;;;4999202;28;20062;-71
2022/09/20 06:11:01;;;;;;;1.88;1.67;;;11.30;99.90;;;;;;4999353;28;20101;-71
2022/09/20 06:14:00;;;;;;;4.03;1.67;;;11.20;99.90;;;;;;4999244;28;20032;-71
2022/09/20 06:16:53;;;;;;;2.92;1.83;;;11.20;99.90;;;;;;4999559;28;20027;-71
2022/09/20 06:19:27;;;;;;;2.75;1.80;;;11.20;99.90;;;;;;4999375;28;20026;-71
2022/09/20 06:22:00;;;;;;;2.70;1.77;;;11.30;99.90;;;;;;4998576;28;20489;-71
2022/09/20 06:24:49;;;;;;;1.67;1.50;;;11.20;99.90;;;;;;4998622;28;20181;-71
2022/09/20 06:27:25;;;;;;;4.43;2.35;;;11.20;99.90;;;;;;4999266;28;20042;-71
2022/09/20 06:29:56;;;;;;;3.42;2.10;;;11.20;99.90;;;;;;4998841;28;20023;-71
2022/09/20 06:32:22;;;;;;;3.78;2.05;;;11.20;99.90;;;;;;4997883;28;20030;-71
2022/09/20 06:34:48;;;;;;;2.30;1.83;;;11.30;99.90;;;;;;4998537;28;20223;-70
2022/09/20 06:43:44;;;;;;;2.88;2.17;;;11.40;99.90;;;;;;4965072;28;20050;-70
2022/09/20 06:46:11;;;;;;;3.42;1.80;;;11.50;99.90;;;;;;4999028;28;20490;-70
2022/09/20 06:48:38;;;;;;;3.35;2.10;;;11.60;99.90;;;;;;4998661;28;20121;-70
2022/09/20 06:51:06;;;;;;;3.00;1.70;;;11.70;99.90;;;;;;4999005;28;20056;-70
2022/09/20 06:53:36;;;;;;;1.83;1.55;;;11.80;99.90;;;;;;4998386;28;20089;-70
2022/09/20 06:56:02;;;;;;;4.25;1.70;;;11.80;99.90;;;;;;4999287;28;20482;-70
2022/09/20 06:58:28;;;;;;;2.33;1.80;;;11.90;99.90;;;;;;4999077;28;20030;-70
2022/09/20 07:00:53;;;;;;;2.75;1.40;;;12.00;99.90;;;;;;4998705;28;20023;-71
2022/09/20 07:03:19;;;;;;;3.70;1.80;;;12.00;99.90;;;;;;4998962;28;20105;-71
2022/09/20 07:05:45;;;;;;;3.05;1.48;;;12.10;99.90;;;;;;4995351;28;20026;-70
2022/09/20 07:08:11;;;;;;;2.13;1.50;;;12.10;99.90;;;;;;4992956;28;20101;-70
2022/09/20 07:10:37;;;;;;;3.03;1.63;;;12.20;99.90;;;;;;4995316;28;20467;-70
2022/09/20 07:13:04;;;;;;;4.00;1.75;;;12.40;99.90;;;;;;4995886;28;20030;-70
2022/09/20 07:15:33;;;;;;;3.58;1.75;;;12.50;99.90;;;;;;4995664;28;20113;-70
2022/09/20 07:17:59;;;;;;;2.10;1.65;;;12.60;99.90;;;;;;4996197;28;20030;-70
2022/09/20 07:20:26;;;;;;;4.07;1.58;;;12.70;99.90;;;;;;4995805;28;20033;-70
2022/09/20 07:22:52;;;;;;;4.10;1.83;;;12.80;99.90;;;;;;4995788;28;20038;-72
2022/09/20 07:25:19;;;;;;;4.63;1.42;;;13.00;99.90;;;;;;4995469;28;20030;-70
2022/09/20 07:27:45;;;;;;;2.97;1.40;;;13.00;99.90;;;;;;4995196;28;20062;-70
2022/09/20 07:30:13;;;;;;;3.30;1.13;;;12.90;99.90;;;;;;4995588;28;20085;-70
2022/09/20 07:32:39;;;;;;;1.50;1.17;;;12.90;99.90;;;;;;4995120;28;20037;-70
2022/09/20 07:35:10;;;;;;;1.30;1.00;;;12.90;99.90;;;;;;4995515;28;20034;-70
2022/09/20 07:37:36;;;;;;;2.05;1.38;;;12.90;99.90;;;;;;4994774;28;20078;-70
2022/09/20 07:40:04;;;;;;;1.67;1.40;;;12.90;99.90;;;;;;4995229;28;20044;-70
2022/09/20 07:42:30;;;;;;;2.47;1.25;;;12.90;99.90;;;;;;4995246;28;20483;-70
2022/09/20 07:44:56;;;;;;;3.83;1.55;;;12.80;99.90;;;;;;4995300;28;20035;-70
2022/09/20 07:47:24;;;;;;;2.33;1.20;;;12.70;99.90;;;;;;4993585;28;20042;-71
2022/09/20 07:49:50;;;;;;;1.88;1.10;;;12.80;99.90;;;;;;4994576;28;20037;-71
2022/09/20 07:52:16;;;;;;;2.55;1.15;;;12.60;99.90;;;;;;4994740;28;20050;-70
2022/09/20 07:54:42;;;;;;;4.50;1.58;;;12.60;99.90;;;;;;4994852;28;20034;-70
2022/09/20 07:57:08;;;;;;;1.92;1.42;;;12.70;99.90;;;;;;4995179;28;20027;-70
2022/09/20 07:59:33;;;;;;;1.50;1.30;;;12.70;99.90;;;;;;4994440;28;20026;-74
2022/09/20 08:01:59;;;;;;;3.40;1.92;;;12.70;99.90;;;;;;4994533;28;20023;-70
2022/09/20 08:04:25;;;;;;;4.30;1.52;;;12.70;99.90;;;;;;4994916;28;20022;-70
2022/09/20 08:06:51;;;;;;;2.17;1.20;;;12.70;99.90;;;;;;4994285;28;20038;-69
2022/09/20 08:09:18;;;;;;;2.60;1.58;;;12.70;99.90;;;;;;4994278;28;20129;-70
2022/09/20 08:11:45;;;;;;;2.53;1.40;;;12.80;99.90;;;;;;4994509;28;20029;-70
2022/09/20 08:14:15;;;;;;;5.93;1.80;;;12.70;99.90;;;;;;4994754;28;20383;-70
2022/09/20 08:16:44;;;;;;;6.18;1.58;;;12.70;99.90;;;;;;4994032;28;20113;-70
2022/09/20 08:19:16;;;;;;;3.47;1.75;;;12.70;99.90;;;;;;4994969;28;20513;-70
2022/09/20 08:21:41;;;;;;;2.38;1.65;;;12.80;99.90;;;;;;4994277;28;20031;-70
2022/09/20 08:24:07;;;;;;;3.90;1.50;;;12.80;99.90;;;;;;4993207;28;20034;-70
2022/09/20 08:26:34;;;;;;;2.53;1.52;;;12.80;99.90;;;;;;4976393;28;20037;-70
2022/09/20 08:29:00;;;;;;;3.53;1.45;;;12.80;99.90;;;;;;4994324;28;20387;-70
2022/09/20 08:31:33;;;;;;;2.75;1.65;;;12.80;99.90;;;;;;4994658;28;20030;-70
2022/09/20 08:34:02;;;;;;;2.03;1.35;;;12.80;99.90;;;;;;4994282;28;20049;-70
2022/09/20 08:36:29;;;;;;;3.70;1.80;;;12.80;99.90;;;;;;4994354;28;20037;-70
2022/09/20 08:38:56;;;;;;;2.05;1.77;;;12.70;99.90;;;;;;4993739;28;20034;-70
2022/09/20 08:41:39;;;;;;;3.47;1.85;;;12.70;99.90;;;;;;4994262;28;20024;-70
2022/09/20 08:44:23;;;;;;;3.60;1.55;;;12.90;99.90;;;;;;4975962;28;20055;-70
2022/09/20 08:47:11;;;;;;;1.80;1.58;;;13.00;99.90;;;;;;4957211;28;20345;-70
2022/09/20 08:49:37;;;;;;;2.47;1.67;;;13.00;99.90;;;;;;4960477;28;20134;-73
2022/09/20 08:52:04;;;;;;;3.95;1.52;;;13.00;99.90;;;;;;4974795;28;20034;-70
2022/09/20 08:54:32;;;;;;;1.40;1.30;;;13.00;99.90;;;;;;4974697;28;20102;-70
2022/09/20 08:57:04;;;;;;;2.75;1.60;;;13.00;99.90;;;;;;4974098;28;20031;-70
2022/09/20 08:59:31;;;;;;;3.35;1.80;;;13.00;99.90;;;;;;4957178;28;20030;-71
2022/09/20 09:01:58;;;;;;;3.60;1.48;;;13.00;99.90;;;;;;4957020;28;20037;-71
2022/09/20 09:04:35;;;;;;;2.17;1.70;;;13.00;99.90;;;;;;4970904;28;20114;-71
2022/09/20 09:07:01;;;;;;;3.63;1.70;;;13.00;99.90;;;;;;4974184;28;20027;-71
2022/09/20 09:09:28;;;;;;;2.53;1.83;;;13.00;99.90;;;;;;4974630;28;20031;-71
2022/09/20 09:11:55;;;;;;;4.20;2.00;;;12.90;99.90;;;;;;4974028;28;20027;-70
2022/09/20 09:14:50;;;;;;;2.10;1.60;;;12.80;99.90;;;;;;4974111;28;20030;-71
2022/09/20 09:17:21;;;;;;;1.70;1.13;;;12.80;99.90;;;;;;4974565;28;20062;-71
2022/09/20 09:19:54;;;;;;;3.17;1.25;;;12.70;99.90;;;;;;4973523;28;20117;-71
2022/09/20 09:22:44;;;;;;;2.78;1.55;;;12.70;99.90;;;;;;4974235;28;20034;-71
2022/09/20 09:25:33;;;;;;;2.05;1.20;;;12.70;99.90;;;;;;4974104;28;20058;-71
2022/09/20 09:28:04;;;;;;;1.38;1.00;;;12.70;99.90;;;;;;4955828;28;20113;-70
2022/09/20 09:30:40;;;;;;;3.70;1.52;;;12.60;99.90;;;;;;4973798;28;20486;-70
2022/09/20 09:33:32;;;;;;;2.55;1.27;;;12.60;99.90;;;;;;4973729;28;20432;-70
2022/09/20 09:36:15;;;;;;;1.27;1.17;;;12.60;99.90;;;;;;4973639;28;20031;-70
2022/09/20 09:38:45;;;;;;;3.63;1.30;;;12.60;99.90;;;;;;4973924;28;20109;-73
2022/09/20 09:41:34;;;;;;;5.75;1.40;;;12.60;99.90;;;;;;4974005;28;20110;-70
2022/09/20 09:44:09;;;;;;;5.95;1.40;;;12.60;99.90;;;;;;4973862;28;20050;-70
2022/09/20 09:46:37;;;;;;;2.33;1.42;;;12.70;99.90;;;;;;4973807;28;20042;-70
2022/09/20 09:49:07;;;;;;;2.80;1.27;;;12.80;99.90;;;;;;4973152;28;20038;-70
2022/09/20 09:51:34;;;;;;;5.10;1.60;;;13.00;99.90;;;;;;4973893;28;20117;-70
2022/09/20 09:54:01;;;;;;;2.75;1.40;;;13.20;99.90;;;;;;4956212;28;20030;-70
2022/09/20 09:56:46;;;;;;;3.40;1.70;;;13.30;99.90;;;;;;4973775;28;20039;-70
2022/09/20 09:59:45;;;;;;;4.13;1.23;;;13.50;99.90;;;;;;4973767;28;20023;-70
2022/09/20 10:02:11;;;;;;;3.00;1.27;;;13.80;99.90;;;;;;4973643;28;20031;-72
2022/09/20 10:04:45;;;;;;;2.30;0.98;;;14.00;99.90;;;;;;4973817;28;20105;-70
2022/09/20 10:07:36;;;;;;;0.98;0.80;;;14.20;99.40;;;;;;4973109;28;20031;-70
2022/09/20 10:10:33;;;;;;;2.25;0.85;;;14.40;97.30;;;;;;4973252;28;20045;-70
2022/09/20 10:12:58;;;;;;;2.08;0.85;;;14.60;97.10;;;;;;4973389;28;20114;-71
2022/09/20 10:15:37;;;;;;;0.82;0.60;;;14.80;96.50;;;;;;4973505;28;20426;-71
2022/09/20 10:18:11;;;;;;;0.52;0.38;;;14.90;94.00;;;;;;4973113;28;20049;-70
2022/09/20 10:20:40;;;;;;;1.13;0.80;;;15.10;92.40;;;;;;4973710;28;20031;-70
2022/09/20 10:23:08;;;;;;;1.42;0.70;;;15.10;91.00;;;;;;4972848;28;20026;-71
2022/09/20 10:25:40;;;;;;;1.88;0.80;;;15.20;91.00;;;;;;4973509;28;20030;-70
2022/09/20 10:28:17;;;;;;;0.55;0.38;;;15.40;91.20;;;;;;4972921;28;20074;-71
2022/09/20 10:30:45;;;;;;;1.15;0.70;;;15.60;90.00;;;;;;4973145;28;20122;-70
2022/09/20 10:33:28;;;;;;;1.10;0.80;;;15.80;90.90;;;;;;4973167;28;20172;-69
2022/09/20 10:36:17;;;;;;;1.05;0.77;;;15.90;88.30;;;;;;4972796;28;20466;-70
2022/09/20 10:38:49;;;;;;;2.38;0.60;;;16.00;85.20;;;;;;4973417;28;20058;-69
2022/09/20 10:44:42;;;;;;;1.55;0.45;;;16.00;85.40;;;;;;4994280;28;20159;-71
2022/09/20 10:47:20;;;;;;;0.70;0.70;;;15.90;84.60;;;;;;4984517;28;20591;-70
2022/09/20 10:49:48;;;;;;;0.98;0.50;;;16.00;85.10;;;;;;4995827;28;20030;-70
2022/09/20 10:52:38;;;;;;;1.90;1.02;;;16.00;82.90;;;;;;4996405;28;20037;-70
2022/09/20 10:55:19;;;;;;;1.02;0.50;;;16.10;83.70;;;;;;4995530;28;20057;-70
2022/09/20 10:58:03;;;;;;;1.20;0.45;;;16.00;81.60;;;;;;4995515;28;20034;-70
2022/09/20 11:00:51;;;;;;;2.05;0.85;;;15.90;80.60;;;;;;4996438;28;20027;-71
2022/09/20 11:03:31;;;;;;;1.75;0.60;;;15.70;82.10;;;;;;4996356;28;20029;-70
2022/09/20 11:06:14;;;;;;;2.50;0.60;;;15.70;81.80;;;;;;4995890;28;20031;-70
2022/09/20 11:08:41;;;;;;;1.23;0.55;;;15.40;79.20;;;;;;4995865;28;20097;-70
2022/09/20 11:11:22;;;;;;;1.63;0.68;;;15.40;79.30;;;;;;4995460;28;20390;-70
2022/09/20 11:14:09;;;;;;;1.67;0.73;;;15.30;80.50;;;;;;4995509;28;20426;-71
2022/09/20 11:16:53;;;;;;;2.40;1.00;;;15.20;82.30;;;;;;4996083;28;20031;-70
2022/09/20 11:19:32;;;;;;;2.78;0.80;;;15.20;83.40;;;;;;4995833;28;20047;-70
2022/09/20 11:22:06;;;;;;;1.10;0.80;;;15.20;83.30;;;;;;4995462;28;20106;-70
2022/09/20 11:24:46;;;;;;;1.38;0.63;;;15.20;84.40;;;;;;4995841;28;20042;-70
2022/09/20 11:27:32;;;;;;;2.57;1.10;;;15.30;85.20;;;;;;4995224;28;20483;-70
2022/09/20 11:30:07;;;;;;;0.60;0.55;;;15.50;84.70;;;;;;4995303;28;20386;-70
2022/09/20 11:32:46;;;;;;;1.05;0.73;;;15.60;81.50;;;;;;4995682;28;20089;-70
2022/09/20 11:35:13;;;;;;;1.48;0.65;;;15.70;82.40;;;;;;4995478;28;20040;-70
2022/09/20 11:37:45;;;;;;;1.15;0.50;;;15.70;81.20;;;;;;4995594;28;20030;-70
2022/09/20 11:40:17;;;;;;;0.60;0.43;;;15.70;82.80;;;;;;4994709;28;20061;-70
2022/09/20 11:42:43;;;;;;;0.98;0.40;;;15.40;83.90;;;;;;4988331;28;20055;-70
2022/09/20 11:45:11;;;;;;;0.80;0.60;;;15.40;87.50;;;;;;4975177;28;20165;-70
2022/09/20 11:48:03;;;;;;;0.65;0.55;;;15.30;87.70;;;;;;4975960;28;20045;-70
2022/09/20 11:50:38;;;;;;;;;;;15.20;89.20;;;;;;4971227;28;20043;-70
2022/09/20 11:53:45;;;;;;;0.90;0.50;;;15.10;90.10;;;;;;4974957;28;20371;-70
2022/09/20 11:56:16;;;;;;;0.63;0.50;;;15.00;90.70;;;;;;4956102;28;20114;-70
2022/09/20 11:58:51;;;;;;;1.08;0.85;;;14.80;90.80;;;;;;4975985;28;20038;-69
2022/09/20 12:01:37;;;;;;;1.92;1.08;;;14.70;91.40;;;;;;4975696;28;20034;-69
2022/09/20 12:04:11;;;;;;;2.85;0.75;;;14.50;91.80;;;;;;4975425;28;20030;-71
2022/09/20 12:06:41;;;;;;;2.00;0.77;;;14.30;92.90;;;;;;4975274;28;20546;-70
2022/09/20 12:09:24;;;;;;;1.92;0.90;;;14.20;93.90;;;;;;4975065;28;20090;-70
2022/09/20 12:11:51;;;;;;;1.85;0.70;;;14.00;95.60;;;;;;4975463;28;20034;-70
2022/09/20 12:14:31;;;;;;;1.63;0.88;;;13.90;95.80;;;;;;4975188;28;20022;-70
2022/09/20 12:16:57;;;;;;;2.42;0.63;;;13.90;96.10;;;;;;4986524;28;20030;-70
2022/09/20 12:19:32;;;;;;;1.50;1.10;;;13.80;97.40;;;;;;4994776;28;20416;-71
2022/09/20 12:21:57;;;;;;;1.67;0.82;;;13.70;98.10;;;;;;4994386;28;20029;-70
2022/09/20 12:24:43;;;;;;;4.07;0.82;;;13.70;98.70;;;;;;4994900;28;20030;-70
2022/09/20 12:27:28;;;;;;;1.83;0.80;;;13.70;99.10;;;;;;4994011;28;20050;-70
2022/09/20 12:30:04;;;;;;;3.13;1.23;;;13.70;99.80;;;;;;4994266;28;20116;-70
2022/09/20 12:32:40;;;;;;;1.40;0.75;;;13.70;99.80;;;;;;4994618;28;20117;-69
2022/09/20 12:35:37;;;;;;;2.20;0.70;;;13.60;99.20;;;;;;4994054;28;20031;-72
2022/09/20 12:38:26;;;;;;;1.88;0.77;;;13.60;98.70;;;;;;4994007;28;20038;-70
2022/09/20 12:41:03;;;;;;;0.82;0.57;;;13.70;98.60;;;;;;4994304;28;20039;-70
2022/09/20 12:43:31;;;;;;;3.40;0.88;;;13.70;98.90;;;;;;4994007;28;20081;-69
2022/09/20 12:45:57;;;;;;;1.90;1.10;;;13.80;99.30;;;;;;4992441;28;20034;-70
2022/09/20 12:48:24;;;;;;;1.30;1.08;;;13.80;99.70;;;;;;4976425;28;20126;-70
2022/09/20 12:54:06;;;;;;;3.28;1.10;;;13.90;98.70;;;;;;4974228;28;20038;-70
2022/09/20 12:56:35;;;;;;;2.47;1.17;;;13.90;99.00;;;;;;4974905;28;20156;-70
2022/09/20 12:59:04;;;;;;;2.65;0.70;;;13.90;99.60;;;;;;4956898;28;20031;-70
2022/09/20 13:01:39;;;;;;;3.67;0.75;;;13.80;97.60;;;;;;4974392;28;20106;-70
2022/09/20 13:04:42;;;;;;;1.83;0.80;;;13.70;97.70;;;;;;4973229;28;20041;-70
2022/09/20 13:07:46;;;;;;;1.77;0.90;;;13.50;97.20;;;;;;4973780;28;20109;-69
2022/09/20 13:10:34;;;;;;;2.03;0.70;;;13.40;97.60;;;;;;4895426;29;20517;-70
2022/09/20 13:13:13;;;;;;;1.70;0.98;;;13.30;97.70;;;;;;4971650;28;20371;-70
2022/09/20 13:15:40;;;;;;;1.95;1.25;;;13.20;97.90;;;;;;4974718;28;20109;-70
2022/09/20 13:18:12;;;;;;;1.00;0.80;;;13.10;97.60;;;;;;4956527;28;20030;-70
2022/09/20 13:20:41;;;;;;;1.75;0.82;;;13.00;98.30;;;;;;4974409;28;20034;-70
2022/09/20 13:23:27;;;;;;;1.58;0.88;;;12.90;98.90;;;;;;4973932;28;20109;-71
2022/09/20 13:25:56;;;;;;;2.40;1.05;;;12.90;99.20;;;;;;4974381;28;20121;-70
2022/09/20 13:28:51;;;;;;;5.22;1.48;;;12.80;99.90;;;;;;4974380;28;20041;-70
2022/09/20 13:31:23;;;;;;;1.30;0.93;;;12.70;99.90;;;;;;4971524;28;20616;-69
2022/09/20 13:33:49;;;;;;;0.88;0.63;;;12.70;99.90;;;;;;4974197;28;20027;-70
2022/09/20 13:36:23;;;;;;;1.67;0.95;;;12.70;99.90;;;;;;4973532;28;20033;-70
2022/09/20 13:38:48;;;;;;;0.95;0.80;;;12.60;99.90;;;;;;4973659;28;20375;-70
2022/09/20 13:41:15;;;;;;;2.13;0.85;;;12.60;99.90;;;;;;4973665;28;20035;-70
2022/09/20 13:43:48;;;;;;;3.25;1.13;;;12.50;99.90;;;;;;4973871;28;20130;-69
2022/09/20 13:46:22;;;;;;;0.88;0.77;;;12.50;99.90;;;;;;4973585;28;20486;-70
2022/09/20 13:49:11;;;;;;;1.80;0.82;;;12.50;99.90;;;;;;4973657;28;20038;-70
2022/09/20 13:51:36;;;;;;;1.20;0.80;;;12.50;99.90;;;;;;4973735;28;20089;-69
2022/09/20 13:54:18;;;;;;;0.88;0.75;;;12.50;99.90;;;;;;4973290;28;20035;-70
2022/09/20 13:56:44;;;;;;;0.70;0.70;;;12.40;98.50;;;;;;4973597;28;20031;-70